EW2701 Weather Reports


Display with metric or nautical units.
time (UTC)temp
F
wind
direction
speed
MPH
gust
MPH
rain 1hr
in
rain 24hr
in
rain mn
in
humidity
%
barometer
mb
20210926063002 59 51 0.0 0.0 0.00 0.00 0.00 95 1015.1
20210926061617 59 51 0.0 0.0 0.00 0.00 0.00 95 1015.2
20210926060239 59 51 0.0 0.0 0.00 0.00 0.00 95 1015.4
20210926054653 59 51 0.0 0.0 0.00 0.00 0.00 95 1015.4
20210926053324 59 51 0.0 0.0 0.00 0.00 0.00 94 1015.4
20210926051641 60 51 0.0 0.0 0.00 0.00 0.00 94 1015.5
20210926050152 60 51 0.0 0.0 0.00 0.00 0.00 94 1015.6
20210926044635 60 51 0.0 0.0 0.00 0.00 0.00 94 1015.6
20210926043207 60 51 0.0 0.0 0.00 0.00 0.00 94 1015.6
20210926041614 61 51 0.0 0.0 0.00 0.00 0.00 94 1015.6
20210926040050 61 51 0.0 0.0 0.00 0.00 0.00 93 1015.5
20210926034617 61 51 0.0 0.0 0.00 0.00 0.00 93 1015.4
20210926033138 62 51 0.0 0.0 0.00 0.00 0.00 93 1015.4
20210926031739 62 51 0.0 0.0 0.00 0.00 0.00 92 1015.2
20210926030143 62 51 0.0 0.0 0.00 0.00 0.00 92 1015.2
20210926024557 62 51 0.0 0.0 0.00 0.00 0.00 91 1015.1
20210926023208 62 51 0.0 0.0 0.00 0.00 0.00 91 1015.1
20210926021553 63 51 0.0 0.0 0.00 0.00 0.00 90 1015.1
20210926020130 63 51 0.0 0.0 0.00 0.00 0.00 90 1014.9
20210926014627 64 51 0.0 0.0 0.00 0.00 0.00 89 1014.7
20210926013133 64 51 0.0 0.0 0.00 0.00 0.00 88 1014.6
20210926011641 64 51 0.0 0.0 0.00 0.00 0.00 87 1014.5
20210926010102 65 51 0.0 0.0 0.00 0.00 0.00 86 1014.3
20210926004601 66 51 0.0 0.0 0.00 0.00 0.00 86 1014.1
20210926003126 67 51 0.0 0.0 0.00 0.00 0.00 83 1014.1
20210926001658 68 51 0.0 0.0 0.00 0.00 0.00 79 1014.0
20210926000132 69 51 0.0 0.0 0.00 0.00 0.00 74 1014.0
20210925234553 71 51 0.0 0.0 0.00 0.00 0.00 73 1014.0
20210925233059 73 55 0.0 0.0 0.00 0.00 0.00 72 1014.1
20210925231618 74 55 0.0 0.0 0.00 0.00 0.00 71 1014.1
20210925230127 76 55 0.0 0.0 0.00 0.00 0.00 63 1014.1
20210925224556 76 55 0.0 0.0 0.00 0.00 0.00 56 1014.0
20210925223121 77 55 0.0 0.0 0.00 0.00 0.00 53 1013.7
20210925221625 78 55 0.0 0.0 0.00 0.00 0.00 54 1013.7
20210925220104 78 55 0.0 0.0 0.00 0.00 0.00 49 1013.7
20210925214553 78 54 0.0 0.0 0.00 0.00 0.00 50 1013.6
20210925213109 79 53 0.0 0.0 0.00 0.00 0.00 48 1013.7
20210925211602 79 54 0.0 0.0 0.00 0.00 0.00 47 1014.0
20210925210140 79 54 0.0 0.0 0.00 0.00 0.00 47 1014.0
20210925204540 79 54 0.0 0.0 0.00 0.00 0.00 46 1014.1
20210925203111 79 55 0.0 0.0 0.00 0.00 0.00 48 1014.1
20210925201639 79 55 0.0 0.0 0.00 0.00 0.00 49 1014.3
20210925200106 79 37 0.0 0.0 0.00 0.00 0.00 46 1014.5
20210925194558 79 30 0.0 0.0 0.00 0.00 0.00 49 1014.6
20210925193041 79 17 0.0 0.0 0.00 0.00 0.00 48 1014.8
20210925191551 78 359 0.0 0.0 0.00 0.00 0.00 47 1015.1
20210925190048 78 333 0.0 0.0 0.00 0.00 0.00 48 1015.1
20210925184529 77 331 0.0 0.0 0.00 0.00 0.00 49 1015.3
20210925183050 77 25 0.0 0.0 0.00 0.00 0.00 48 1015.6
20210925181533 77 22 0.0 0.0 0.00 0.00 0.00 51 1015.6
20210925180018 76 6 0.0 0.0 0.00 0.00 0.00 54 1015.9
20210925174516 76 11 0.0 0.0 0.00 0.00 0.00 52 1016.1
20210925173016 75 340 0.0 0.0 0.00 0.00 0.00 55 1016.2
20210925171512 75 338 0.0 0.0 0.00 0.00 0.00 56 1016.2
20210925170009 74 319 0.0 0.0 0.00 0.00 0.00 54 1016.3
20210925164509 74 318 1.0 0.0 0.00 0.00 0.00 53 1016.6
20210925163030 74 1 0.0 0.0 0.00 0.00 0.00 53 1016.7
20210925161637 73 21 0.0 0.0 0.00 0.00 0.00 55 1016.7
20210925160203 72 19 0.0 0.0 0.00 0.00 0.00 57 1016.8
20210925154744 72 19 0.0 0.0 0.00 0.00 0.00 59 1016.9
20210925153216 71 19 0.0 0.0 0.00 0.00 0.00 60 1017.0
20210925151611 70 19 0.0 0.0 0.00 0.00 0.00 64 1017.1
20210925150157 69 19 0.0 0.0 0.00 0.00 0.00 68 1017.2
20210925144555 68 19 0.0 0.0 0.00 0.00 0.00 76 1017.2
20210925143050 66 19 0.0 0.0 0.00 0.00 0.00 82 1017.2
20210925141556 63 19 0.0 0.0 0.00 0.00 0.00 84 1017.1
20210925140045 62 19 0.0 0.0 0.00 0.00 0.00 86 1017.2
20210925134539 60 19 0.0 0.0 0.00 0.00 0.00 88 1017.0
20210925133108 59 19 0.0 0.0 0.00 0.00 0.00 89 1016.7
20210925131613 57 19 0.0 0.0 0.00 0.00 0.00 91 1016.7
20210925130025 56 19 0.0 0.0 0.00 0.00 0.00 93 1016.7
20210925124555 54 19 0.0 0.0 0.00 0.00 0.00 95 1016.5
20210925123045 54 19 0.0 0.0 0.00 0.00 0.00 95 1016.2
20210925121517 53 19 0.0 0.0 0.00 0.00 0.00 96 1016.2
20210925120015 53 19 0.0 0.0 0.00 0.00 0.00 96 1016.1
20210925114534 53 19 0.0 0.0 0.00 0.00 0.00 96 1015.7
20210925113036 53 19 0.0 0.0 0.00 0.00 0.00 96 1015.6
20210925111516 53 19 0.0 0.0 0.00 0.00 0.00 96 1015.6
20210925110017 53 19 0.0 0.0 0.00 0.00 0.00 95 1015.2
20210925104519 54 19 0.0 0.0 0.00 0.00 0.00 96 1015.2
20210925103008 54 19 0.0 0.0 0.00 0.00 0.00 96 1015.1
20210925101510 54 19 0.0 0.0 0.00 0.00 0.00 96 1015.0
20210925100006 54 19 0.0 0.0 0.00 0.00 0.00 96 1014.9
20210925094507 54 19 0.0 0.0 0.00 0.00 0.00 95 1014.8
20210925093003 55 19 0.0 0.0 0.00 0.00 0.00 95 1014.8
20210925091502 55 19 0.0 0.0 0.00 0.00 0.00 95 1014.7
20210925090001 55 19 0.0 0.0 0.00 0.00 0.00 96 1014.9
20210925083121 55 19 0.0 0.0 0.00 0.00 0.00 96 1015.0
20210925081622 55 19 0.0 0.0 0.00 0.00 0.00 95 1015.1
20210925080129 56 19 0.0 0.0 0.00 0.00 0.00 96 1015.0
20210925074738 56 19 0.0 0.0 0.00 0.00 0.00 96 1015.0
20210925073126 56 19 0.0 0.0 0.00 0.00 0.00 95 1015.0
20210925071740 56 19 0.0 0.0 0.00 0.00 0.00 95 1015.0
20210925070129 56 19 0.0 0.0 0.00 0.00 0.00 95 1014.7
20210925064701 56 19 0.0 0.0 0.00 0.00 0.00 95 1014.8